sensor_id;sensor_type;location;lat;lon;timestamp;temperature;humidity
72591;SHT31;60625;51.212;5.952;2023-04-30T00:01:56;9.99;73.71
72591;SHT31;60625;51.212;5.952;2023-04-30T00:06:56;9.87;74.14
72591;SHT31;60625;51.212;5.952;2023-04-30T00:11:57;9.77;74.53
72591;SHT31;60625;51.212;5.952;2023-04-30T00:16:57;9.67;74.89
72591;SHT31;60625;51.212;5.952;2023-04-30T00:21:58;9.54;75.17
72591;SHT31;60625;51.212;5.952;2023-04-30T00:27:00;9.48;75.52
72591;SHT31;60625;51.212;5.952;2023-04-30T00:32:01;9.48;75.82
72591;SHT31;60625;51.212;5.952;2023-04-30T00:37:01;9.46;76.02
72591;SHT31;60625;51.212;5.952;2023-04-30T00:42:03;9.41;76.22
72591;SHT31;60625;51.212;5.952;2023-04-30T00:47:04;9.36;76.50
72591;SHT31;60625;51.212;5.952;2023-04-30T00:52:05;9.34;76.63
72591;SHT31;60625;51.212;5.952;2023-04-30T00:57:06;9.28;76.76
72591;SHT31;60625;51.212;5.952;2023-04-30T01:02:12;9.19;76.94
72591;SHT31;60625;51.212;5.952;2023-04-30T01:07:14;9.12;77.22
72591;SHT31;60625;51.212;5.952;2023-04-30T01:17:36;8.91;77.64
72591;SHT31;60625;51.212;5.952;2023-04-30T01:22:51;8.84;77.82
72591;SHT31;60625;51.212;5.952;2023-04-30T01:28:15;8.79;78.19
72591;SHT31;60625;51.212;5.952;2023-04-30T01:33:19;8.77;78.49
72591;SHT31;60625;51.212;5.952;2023-04-30T01:38:42;8.74;78.50
72591;SHT31;60625;51.212;5.952;2023-04-30T01:44:40;8.67;78.49
72591;SHT31;60625;51.212;5.952;2023-04-30T01:55:25;8.54;78.84
72591;SHT31;60625;51.212;5.952;2023-04-30T02:00:31;8.44;79.01
72591;SHT31;60625;51.212;5.952;2023-04-30T02:05:33;8.37;79.46
72591;SHT31;60625;51.212;5.952;2023-04-30T02:10:33;8.31;79.67
72591;SHT31;60625;51.212;5.952;2023-04-30T02:15:36;8.23;79.78
72591;SHT31;60625;51.212;5.952;2023-04-30T02:20:36;8.19;80.03
72591;SHT31;60625;51.212;5.952;2023-04-30T02:25:37;8.14;80.29
72591;SHT31;60625;51.212;5.952;2023-04-30T02:30:38;8.10;80.25
72591;SHT31;60625;51.212;5.952;2023-04-30T02:35:39;8.06;80.54
72591;SHT31;60625;51.212;5.952;2023-04-30T02:40:40;8.02;80.70
72591;SHT31;60625;51.212;5.952;2023-04-30T02:45:42;7.97;80.86
72591;SHT31;60625;51.212;5.952;2023-04-30T02:50:42;7.91;81.03
72591;SHT31;60625;51.212;5.952;2023-04-30T02:55:42;7.91;81.17
72591;SHT31;60625;51.212;5.952;2023-04-30T03:00:43;7.89;81.04
72591;SHT31;60625;51.212;5.952;2023-04-30T03:05:43;7.84;80.96
72591;SHT31;60625;51.212;5.952;2023-04-30T03:10:43;7.73;80.96
72591;SHT31;60625;51.212;5.952;2023-04-30T03:15:44;7.67;81.17
72591;SHT31;60625;51.212;5.952;2023-04-30T03:20:45;7.61;81.25
72591;SHT31;60625;51.212;5.952;2023-04-30T03:25:46;7.56;81.31
72591;SHT31;60625;51.212;5.952;2023-04-30T03:30:46;7.53;81.48
72591;SHT31;60625;51.212;5.952;2023-04-30T03:35:47;7.50;81.61
72591;SHT31;60625;51.212;5.952;2023-04-30T03:40:49;7.42;81.72
72591;SHT31;60625;51.212;5.952;2023-04-30T03:45:50;7.37;82.08
72591;SHT31;60625;51.212;5.952;2023-04-30T03:50:51;7.31;82.18
72591;SHT31;60625;51.212;5.952;2023-04-30T03:55:52;7.23;82.14
72591;SHT31;60625;51.212;5.952;2023-04-30T04:00:54;7.15;82.11
72591;SHT31;60625;51.212;5.952;2023-04-30T04:05:55;7.07;82.26
72591;SHT31;60625;51.212;5.952;2023-04-30T04:10:56;7.02;82.40
72591;SHT31;60625;51.212;5.952;2023-04-30T04:15:56;6.98;82.70
72591;SHT31;60625;51.212;5.952;2023-04-30T04:20:57;6.99;82.89
72591;SHT31;60625;51.212;5.952;2023-04-30T04:25:57;7.03;82.97
72591;SHT31;60625;51.212;5.952;2023-04-30T04:30:59;7.07;82.64
72591;SHT31;60625;51.212;5.952;2023-04-30T04:36:03;7.09;82.43
72591;SHT31;60625;51.212;5.952;2023-04-30T04:41:04;7.13;82.38
72591;SHT31;60625;51.212;5.952;2023-04-30T04:46:05;7.17;82.57
72591;SHT31;60625;51.212;5.952;2023-04-30T04:51:08;7.21;82.85
72591;SHT31;60625;51.212;5.952;2023-04-30T04:56:10;7.17;82.79
72591;SHT31;60625;51.212;5.952;2023-04-30T05:01:10;7.19;83.04
72591;SHT31;60625;51.212;5.952;2023-04-30T05:06:11;7.22;83.11
72591;SHT31;60625;51.212;5.952;2023-04-30T05:11:11;7.19;83.14
72591;SHT31;60625;51.212;5.952;2023-04-30T05:16:12;7.20;83.40
72591;SHT31;60625;51.212;5.952;2023-04-30T05:21:12;7.28;83.60
72591;SHT31;60625;51.212;5.952;2023-04-30T05:26:13;7.38;83.60
72591;SHT31;60625;51.212;5.952;2023-04-30T05:31:13;7.50;83.65
72591;SHT31;60625;51.212;5.952;2023-04-30T05:36:14;7.62;83.64
72591;SHT31;60625;51.212;5.952;2023-04-30T05:41:14;7.72;83.60
72591;SHT31;60625;51.212;5.952;2023-04-30T05:46:15;7.84;83.69
72591;SHT31;60625;51.212;5.952;2023-04-30T05:51:15;7.96;83.69
72591;SHT31;60625;51.212;5.952;2023-04-30T05:56:16;8.09;83.82
72591;SHT31;60625;51.212;5.952;2023-04-30T06:01:17;8.20;83.66
72591;SHT31;60625;51.212;5.952;2023-04-30T06:06:20;8.33;83.61
72591;SHT31;60625;51.212;5.952;2023-04-30T06:11:20;8.45;83.46
72591;SHT31;60625;51.212;5.952;2023-04-30T06:16:22;8.58;83.55
72591;SHT31;60625;51.212;5.952;2023-04-30T06:21:23;8.70;83.46
72591;SHT31;60625;51.212;5.952;2023-04-30T06:26:25;8.80;83.37
72591;SHT31;60625;51.212;5.952;2023-04-30T06:31:26;8.94;83.32
72591;SHT31;60625;51.212;5.952;2023-04-30T06:36:27;9.08;82.93
72591;SHT31;60625;51.212;5.952;2023-04-30T06:41:28;9.21;82.93
72591;SHT31;60625;51.212;5.952;2023-04-30T06:46:28;9.36;82.71
72591;SHT31;60625;51.212;5.952;2023-04-30T06:51:29;9.52;82.71
72591;SHT31;60625;51.212;5.952;2023-04-30T06:56:30;9.74;82.62
72591;SHT31;60625;51.212;5.952;2023-04-30T07:01:30;9.94;81.39
72591;SHT31;60625;51.212;5.952;2023-04-30T07:06:31;10.15;80.86
72591;SHT31;60625;51.212;5.952;2023-04-30T07:11:31;10.43;80.58
72591;SHT31;60625;51.212;5.952;2023-04-30T07:16:32;10.68;79.75
72591;SHT31;60625;51.212;5.952;2023-04-30T07:21:32;10.90;79.32
72591;SHT31;60625;51.212;5.952;2023-04-30T07:26:32;11.15;78.67
72591;SHT31;60625;51.212;5.952;2023-04-30T07:31:33;11.41;78.53
72591;SHT31;60625;51.212;5.952;2023-04-30T07:36:33;11.66;78.13
72591;SHT31;60625;51.212;5.952;2023-04-30T07:41:34;11.86;76.82
72591;SHT31;60625;51.212;5.952;2023-04-30T07:46:34;12.05;76.07
72591;SHT31;60625;51.212;5.952;2023-04-30T07:51:35;12.27;75.61
72591;SHT31;60625;51.212;5.952;2023-04-30T07:56:36;12.49;74.89
72591;SHT31;60625;51.212;5.952;2023-04-30T08:01:37;12.77;74.10
72591;SHT31;60625;51.212;5.952;2023-04-30T08:06:37;13.03;73.22
72591;SHT31;60625;51.212;5.952;2023-04-30T08:11:37;13.26;72.57
72591;SHT31;60625;51.212;5.952;2023-04-30T08:16:38;13.54;72.43
72591;SHT31;60625;51.212;5.952;2023-04-30T08:21:39;13.74;71.14
72591;SHT31;60625;51.212;5.952;2023-04-30T08:26:39;13.98;70.10
72591;SHT31;60625;51.212;5.952;2023-04-30T08:31:40;14.21;69.18
72591;SHT31;60625;51.212;5.952;2023-04-30T08:36:40;14.41;68.33
72591;SHT31;60625;51.212;5.952;2023-04-30T08:41:41;14.63;67.14
72591;SHT31;60625;51.212;5.952;2023-04-30T08:46:46;14.78;66.32
72591;SHT31;60625;51.212;5.952;2023-04-30T08:51:53;14.96;64.93
72591;SHT31;60625;51.212;5.952;2023-04-30T08:56:54;15.15;63.53
72591;SHT31;60625;51.212;5.952;2023-04-30T09:01:54;15.30;63.84
72591;SHT31;60625;51.212;5.952;2023-04-30T09:06:55;15.48;62.38
72591;SHT31;60625;51.212;5.952;2023-04-30T09:12:11;15.61;60.19
72591;SHT31;60625;51.212;5.952;2023-04-30T09:17:20;15.73;60.34
72591;SHT31;60625;51.212;5.952;2023-04-30T09:22:22;15.84;58.75
72591;SHT31;60625;51.212;5.952;2023-04-30T09:27:23;15.95;57.38
72591;SHT31;60625;51.212;5.952;2023-04-30T09:32:24;16.06;57.19
72591;SHT31;60625;51.212;5.952;2023-04-30T09:37:37;16.23;56.60
72591;SHT31;60625;51.212;5.952;2023-04-30T09:42:37;16.49;56.55
72591;SHT31;60625;51.212;5.952;2023-04-30T09:47:39;16.66;56.76
72591;SHT31;60625;51.212;5.952;2023-04-30T09:52:40;16.74;56.67
72591;SHT31;60625;51.212;5.952;2023-04-30T09:57:40;17.02;56.60
72591;SHT31;60625;51.212;5.952;2023-04-30T10:02:41;17.09;56.06
72591;SHT31;60625;51.212;5.952;2023-04-30T10:07:41;17.27;55.60
72591;SHT31;60625;51.212;5.952;2023-04-30T10:12:43;17.25;54.78
72591;SHT31;60625;51.212;5.952;2023-04-30T10:17:59;17.36;55.94
72591;SHT31;60625;51.212;5.952;2023-04-30T10:23:02;17.38;54.90
72591;SHT31;60625;51.212;5.952;2023-04-30T10:28:04;17.48;53.97
72591;SHT31;60625;51.212;5.952;2023-04-30T10:39:04;17.63;53.19
72591;SHT31;60625;51.212;5.952;2023-04-30T10:44:06;17.74;51.85
72591;SHT31;60625;51.212;5.952;2023-04-30T10:49:07;17.91;52.21
72591;SHT31;60625;51.212;5.952;2023-04-30T10:54:08;18.06;52.19
72591;SHT31;60625;51.212;5.952;2023-04-30T10:59:09;18.27;51.28
72591;SHT31;60625;51.212;5.952;2023-04-30T11:04:10;18.49;52.15
72591;SHT31;60625;51.212;5.952;2023-04-30T11:09:10;18.59;51.74
72591;SHT31;60625;51.212;5.952;2023-04-30T11:14:11;18.67;50.39
72591;SHT31;60625;51.212;5.952;2023-04-30T11:19:20;18.77;51.41
72591;SHT31;60625;51.212;5.952;2023-04-30T11:24:48;18.99;50.24
72591;SHT31;60625;51.212;5.952;2023-04-30T11:29:53;18.72;50.55
72591;SHT31;60625;51.212;5.952;2023-04-30T11:34:55;18.82;50.68
72591;SHT31;60625;51.212;5.952;2023-04-30T11:39:56;19.06;49.56
72591;SHT31;60625;51.212;5.952;2023-04-30T11:50:10;19.20;50.08
72591;SHT31;60625;51.212;5.952;2023-04-30T11:55:26;19.45;49.96
72591;SHT31;60625;51.212;5.952;2023-04-30T12:00:28;19.54;48.33
72591;SHT31;60625;51.212;5.952;2023-04-30T12:05:30;19.33;49.78
72591;SHT31;60625;51.212;5.952;2023-04-30T12:10:31;19.32;49.21
72591;SHT31;60625;51.212;5.952;2023-04-30T12:15:32;19.46;50.54
72591;SHT31;60625;51.212;5.952;2023-04-30T12:20:33;19.61;48.41
72591;SHT31;60625;51.212;5.952;2023-04-30T12:25:41;19.61;48.16
72591;SHT31;60625;51.212;5.952;2023-04-30T12:30:42;19.60;48.97
72591;SHT31;60625;51.212;5.952;2023-04-30T12:35:44;19.60;48.31
72591;SHT31;60625;51.212;5.952;2023-04-30T12:40:47;19.53;49.54
72591;SHT31;60625;51.212;5.952;2023-04-30T12:45:49;19.28;49.99
72591;SHT31;60625;51.212;5.952;2023-04-30T12:50:52;19.44;50.05
72591;SHT31;60625;51.212;5.952;2023-04-30T12:56:11;19.29;50.10
72591;SHT31;60625;51.212;5.952;2023-04-30T13:01:21;19.25;49.81
72591;SHT31;60625;51.212;5.952;2023-04-30T13:06:23;19.14;49.94
72591;SHT31;60625;51.212;5.952;2023-04-30T13:11:23;19.17;50.22
72591;SHT31;60625;51.212;5.952;2023-04-30T13:16:25;19.34;49.87
72591;SHT31;60625;51.212;5.952;2023-04-30T13:21:25;19.37;48.99
72591;SHT31;60625;51.212;5.952;2023-04-30T13:26:27;19.40;48.87
72591;SHT31;60625;51.212;5.952;2023-04-30T13:31:27;19.53;49.38
72591;SHT31;60625;51.212;5.952;2023-04-30T13:36:28;19.77;47.49
72591;SHT31;60625;51.212;5.952;2023-04-30T13:41:28;19.77;47.33
72591;SHT31;60625;51.212;5.952;2023-04-30T13:46:29;19.77;48.33
72591;SHT31;60625;51.212;5.952;2023-04-30T13:51:30;19.98;47.63
72591;SHT31;60625;51.212;5.952;2023-04-30T13:56:31;19.96;47.97
72591;SHT31;60625;51.212;5.952;2023-04-30T14:01:32;19.93;47.70
72591;SHT31;60625;51.212;5.952;2023-04-30T14:06:33;19.86;46.91
72591;SHT31;60625;51.212;5.952;2023-04-30T14:11:33;19.95;47.83
72591;SHT31;60625;51.212;5.952;2023-04-30T14:16:34;20.00;46.63
72591;SHT31;60625;51.212;5.952;2023-04-30T14:21:35;19.91;46.81
72591;SHT31;60625;51.212;5.952;2023-04-30T14:26:35;19.77;45.78
72591;SHT31;60625;51.212;5.952;2023-04-30T14:31:36;19.65;46.60
72591;SHT31;60625;51.212;5.952;2023-04-30T14:36:37;19.60;47.12
72591;SHT31;60625;51.212;5.952;2023-04-30T14:41:38;19.71;47.13
72591;SHT31;60625;51.212;5.952;2023-04-30T14:46:38;19.81;46.57
72591;SHT31;60625;51.212;5.952;2023-04-30T14:51:39;19.91;47.18
72591;SHT31;60625;51.212;5.952;2023-04-30T14:56:40;20.04;47.10
72591;SHT31;60625;51.212;5.952;2023-04-30T15:01:41;20.07;47.06
72591;SHT31;60625;51.212;5.952;2023-04-30T15:06:41;19.95;45.88
72591;SHT31;60625;51.212;5.952;2023-04-30T15:11:42;19.87;46.92
72591;SHT31;60625;51.212;5.952;2023-04-30T15:16:42;19.89;45.65
72591;SHT31;60625;51.212;5.952;2023-04-30T15:21:43;19.94;45.03
72591;SHT31;60625;51.212;5.952;2023-04-30T15:26:43;20.00;45.94
72591;SHT31;60625;51.212;5.952;2023-04-30T15:31:44;19.93;46.06
72591;SHT31;60625;51.212;5.952;2023-04-30T15:36:44;19.75;45.47
72591;SHT31;60625;51.212;5.952;2023-04-30T15:41:45;19.69;46.01
72591;SHT31;60625;51.212;5.952;2023-04-30T15:46:46;19.65;46.38
72591;SHT31;60625;51.212;5.952;2023-04-30T15:51:47;19.69;46.17
72591;SHT31;60625;51.212;5.952;2023-04-30T15:56:49;19.70;45.06
72591;SHT31;60625;51.212;5.952;2023-04-30T16:01:50;19.67;45.47
72591;SHT31;60625;51.212;5.952;2023-04-30T16:06:51;19.60;47.69
72591;SHT31;60625;51.212;5.952;2023-04-30T16:11:52;19.36;45.97
72591;SHT31;60625;51.212;5.952;2023-04-30T16:16:52;19.19;48.17
72591;SHT31;60625;51.212;5.952;2023-04-30T16:21:53;19.18;46.47
72591;SHT31;60625;51.212;5.952;2023-04-30T16:26:54;19.23;46.59
72591;SHT31;60625;51.212;5.952;2023-04-30T16:31:56;19.14;48.38
72591;SHT31;60625;51.212;5.952;2023-04-30T16:36:56;19.11;47.40
72591;SHT31;60625;51.212;5.952;2023-04-30T16:41:57;19.09;47.66
72591;SHT31;60625;51.212;5.952;2023-04-30T16:46:57;18.96;47.44
72591;SHT31;60625;51.212;5.952;2023-04-30T16:51:59;18.86;48.90
72591;SHT31;60625;51.212;5.952;2023-04-30T16:57:01;18.81;49.91
72591;SHT31;60625;51.212;5.952;2023-04-30T17:02:04;18.74;50.13
72591;SHT31;60625;51.212;5.952;2023-04-30T17:07:05;18.56;48.73
72591;SHT31;60625;51.212;5.952;2023-04-30T17:12:06;18.42;48.65
72591;SHT31;60625;51.212;5.952;2023-04-30T17:17:07;18.21;49.60
72591;SHT31;60625;51.212;5.952;2023-04-30T17:22:07;18.03;49.90
72591;SHT31;60625;51.212;5.952;2023-04-30T17:27:08;17.92;50.61
72591;SHT31;60625;51.212;5.952;2023-04-30T17:32:08;17.81;51.11
72591;SHT31;60625;51.212;5.952;2023-04-30T17:37:10;17.68;51.90
72591;SHT31;60625;51.212;5.952;2023-04-30T17:42:11;17.55;52.34
72591;SHT31;60625;51.212;5.952;2023-04-30T17:47:12;17.48;52.90
72591;SHT31;60625;51.212;5.952;2023-04-30T17:52:13;17.41;53.27
72591;SHT31;60625;51.212;5.952;2023-04-30T17:57:13;17.29;53.15
72591;SHT31;60625;51.212;5.952;2023-04-30T18:02:13;17.16;52.74
72591;SHT31;60625;51.212;5.952;2023-04-30T18:07:14;16.96;53.72
72591;SHT31;60625;51.212;5.952;2023-04-30T18:12:15;16.80;52.83
72591;SHT31;60625;51.212;5.952;2023-04-30T18:17:16;16.61;53.79
72591;SHT31;60625;51.212;5.952;2023-04-30T18:22:17;16.47;54.12
72591;SHT31;60625;51.212;5.952;2023-04-30T18:27:19;16.35;54.17
72591;SHT31;60625;51.212;5.952;2023-04-30T18:32:20;16.21;54.33
72591;SHT31;60625;51.212;5.952;2023-04-30T18:37:21;16.07;54.94
72591;SHT31;60625;51.212;5.952;2023-04-30T18:42:23;15.90;55.59
72591;SHT31;60625;51.212;5.952;2023-04-30T18:47:24;15.78;55.58
72591;SHT31;60625;51.212;5.952;2023-04-30T18:52:24;15.64;56.39
72591;SHT31;60625;51.212;5.952;2023-04-30T18:57:25;15.50;56.63
72591;SHT31;60625;51.212;5.952;2023-04-30T19:02:26;15.41;56.83
72591;SHT31;60625;51.212;5.952;2023-04-30T19:07:26;15.27;57.28
72591;SHT31;60625;51.212;5.952;2023-04-30T19:12:27;15.12;57.33
72591;SHT31;60625;51.212;5.952;2023-04-30T19:17:27;14.95;57.85
72591;SHT31;60625;51.212;5.952;2023-04-30T19:22:28;14.81;57.97
72591;SHT31;60625;51.212;5.952;2023-04-30T19:27:28;14.74;57.88
72591;SHT31;60625;51.212;5.952;2023-04-30T19:32:29;14.68;58.49
72591;SHT31;60625;51.212;5.952;2023-04-30T19:37:30;14.56;58.87
72591;SHT31;60625;51.212;5.952;2023-04-30T19:42:30;14.47;59.13
72591;SHT31;60625;51.212;5.952;2023-04-30T19:47:31;14.37;59.33
72591;SHT31;60625;51.212;5.952;2023-04-30T19:52:32;14.29;59.43
72591;SHT31;60625;51.212;5.952;2023-04-30T19:57:33;14.22;59.74
72591;SHT31;60625;51.212;5.952;2023-04-30T20:02:34;14.15;59.95
72591;SHT31;60625;51.212;5.952;2023-04-30T20:07:35;14.06;60.14
72591;SHT31;60625;51.212;5.952;2023-04-30T20:12:36;13.96;60.48
72591;SHT31;60625;51.212;5.952;2023-04-30T20:17:36;13.87;60.76
72591;SHT31;60625;51.212;5.952;2023-04-30T20:22:37;13.80;61.10
72591;SHT31;60625;51.212;5.952;2023-04-30T20:27:38;13.71;61.38
72591;SHT31;60625;51.212;5.952;2023-04-30T20:32:39;13.65;61.58
72591;SHT31;60625;51.212;5.952;2023-04-30T20:37:40;13.58;61.78
72591;SHT31;60625;51.212;5.952;2023-04-30T20:42:40;13.55;61.76
72591;SHT31;60625;51.212;5.952;2023-04-30T20:47:41;13.48;62.13
72591;SHT31;60625;51.212;5.952;2023-04-30T20:52:42;13.40;62.22
72591;SHT31;60625;51.212;5.952;2023-04-30T20:57:42;13.35;62.40
72591;SHT31;60625;51.212;5.952;2023-04-30T21:02:43;13.26;62.77
72591;SHT31;60625;51.212;5.952;2023-04-30T21:07:44;13.19;63.06
72591;SHT31;60625;51.212;5.952;2023-04-30T21:12:44;13.13;63.03
72591;SHT31;60625;51.212;5.952;2023-04-30T21:17:44;13.11;63.08
72591;SHT31;60625;51.212;5.952;2023-04-30T21:22:45;13.05;63.33
72591;SHT31;60625;51.212;5.952;2023-04-30T21:27:46;12.99;63.51
72591;SHT31;60625;51.212;5.952;2023-04-30T21:32:46;12.95;63.58
72591;SHT31;60625;51.212;5.952;2023-04-30T21:37:47;12.91;63.69
72591;SHT31;60625;51.212;5.952;2023-04-30T21:42:48;12.90;63.81
72591;SHT31;60625;51.212;5.952;2023-04-30T21:47:48;12.89;63.69
72591;SHT31;60625;51.212;5.952;2023-04-30T21:52:49;12.89;63.67
72591;SHT31;60625;51.212;5.952;2023-04-30T21:57:50;12.90;63.62
72591;SHT31;60625;51.212;5.952;2023-04-30T22:02:50;12.89;63.78
72591;SHT31;60625;51.212;5.952;2023-04-30T22:07:51;12.85;64.04
72591;SHT31;60625;51.212;5.952;2023-04-30T22:12:51;12.83;63.88
72591;SHT31;60625;51.212;5.952;2023-04-30T22:17:52;12.85;63.68
72591;SHT31;60625;51.212;5.952;2023-04-30T22:22:52;12.81;64.18
72591;SHT31;60625;51.212;5.952;2023-04-30T22:27:53;12.75;64.35
72591;SHT31;60625;51.212;5.952;2023-04-30T22:32:56;12.68;64.60
72591;SHT31;60625;51.212;5.952;2023-04-30T22:37:57;12.61;64.72
72591;SHT31;60625;51.212;5.952;2023-04-30T22:42:58;12.57;64.75
72591;SHT31;60625;51.212;5.952;2023-04-30T22:48:00;12.52;64.84
72591;SHT31;60625;51.212;5.952;2023-04-30T22:53:00;12.48;64.76
72591;SHT31;60625;51.212;5.952;2023-04-30T22:58:01;12.45;64.67
72591;SHT31;60625;51.212;5.952;2023-04-30T23:03:02;12.43;64.47
72591;SHT31;60625;51.212;5.952;2023-04-30T23:08:02;12.39;64.47
72591;SHT31;60625;51.212;5.952;2023-04-30T23:13:03;12.34;64.71
72591;SHT31;60625;51.212;5.952;2023-04-30T23:18:03;12.30;64.47
72591;SHT31;60625;51.212;5.952;2023-04-30T23:23:05;12.25;64.42
72591;SHT31;60625;51.212;5.952;2023-04-30T23:28:06;12.20;64.57
72591;SHT31;60625;51.212;5.952;2023-04-30T23:33:06;12.15;64.69
72591;SHT31;60625;51.212;5.952;2023-04-30T23:38:07;12.12;64.60
72591;SHT31;60625;51.212;5.952;2023-04-30T23:43:07;12.10;64.67
72591;SHT31;60625;51.212;5.952;2023-04-30T23:48:08;12.07;65.17
72591;SHT31;60625;51.212;5.952;2023-04-30T23:53:09;12.02;65.47
72591;SHT31;60625;51.212;5.952;2023-04-30T23:58:10;11.96;65.82
